createdAt,value
2022-07-29T00:01:44.404Z,1.10
2022-07-29T00:04:11.265Z,1.25
2022-07-29T00:06:37.881Z,1.30
2022-07-29T00:09:04.773Z,1.63
2022-07-29T00:11:31.326Z,1.63
2022-07-29T00:13:58.051Z,1.58
2022-07-29T00:16:24.643Z,1.30
2022-07-29T00:18:51.247Z,1.38
2022-07-29T00:21:17.817Z,1.23
2022-07-29T00:23:44.411Z,1.40
2022-07-29T00:26:10.989Z,1.27
2022-07-29T00:28:37.566Z,1.40
2022-07-29T00:31:04.253Z,1.60
2022-07-29T00:33:30.986Z,1.40
2022-07-29T00:35:57.564Z,1.38
2022-07-29T00:38:24.139Z,1.50
2022-07-29T00:40:50.781Z,1.50
2022-07-29T00:43:18.843Z,1.38
2022-07-29T00:45:45.920Z,1.30
2022-07-29T00:48:12.605Z,1.52
2022-07-29T00:50:39.516Z,1.20
2022-07-29T00:53:09.400Z,1.70
2022-07-29T00:58:17.234Z,1.58
2022-07-29T01:00:44.898Z,1.58
2022-07-29T01:03:12.428Z,1.58
2022-07-29T01:05:50.429Z,1.75
2022-07-29T01:08:18.815Z,1.40
2022-07-29T01:10:46.509Z,1.27
2022-07-29T01:13:13.117Z,1.55
2022-07-29T01:15:49.019Z,1.55
2022-07-29T01:21:21.019Z,1.83
2022-07-29T01:23:59.136Z,1.55
2022-07-29T01:26:48.228Z,1.60
2022-07-29T01:29:35.991Z,1.75
2022-07-29T01:32:27.584Z,1.52
2022-07-29T01:35:09.023Z,1.67
2022-07-29T01:38:06.541Z,1.30
2022-07-29T01:40:42.633Z,1.70
2022-07-29T01:46:02.952Z,1.70
2022-07-29T01:48:47.238Z,1.70
2022-07-29T01:51:21.564Z,2.03
2022-07-29T01:54:20.708Z,1.95
2022-07-29T01:56:50.184Z,1.40
2022-07-29T02:01:59.847Z,1.52
2022-07-29T02:04:30.037Z,1.90
2022-07-29T02:07:08.515Z,1.52
2022-07-29T02:09:36.921Z,1.55
2022-07-29T02:12:04.588Z,2.10
2022-07-29T02:14:43.157Z,1.58
2022-07-29T02:17:11.787Z,1.60
2022-07-29T02:19:39.112Z,1.38
2022-07-29T02:22:06.663Z,1.60
2022-07-29T02:24:33.730Z,2.75
2022-07-29T02:27:01.243Z,1.95
2022-07-29T02:29:29.675Z,2.03
2022-07-29T02:31:56.546Z,2.33
2022-07-29T02:34:24.477Z,1.65
2022-07-29T02:36:59.748Z,1.85
2022-07-29T02:39:28.627Z,1.80
2022-07-29T02:42:05.440Z,1.70
2022-07-29T02:44:34.821Z,1.65
2022-07-29T02:47:21.871Z,2.45
2022-07-29T02:50:10.663Z,1.98
2022-07-29T02:55:31.983Z,2.00
2022-07-29T02:58:08.189Z,1.73
2022-07-29T03:00:38.347Z,2.33
2022-07-29T03:03:07.881Z,1.70
2022-07-29T03:05:36.189Z,1.80
2022-07-29T03:08:09.092Z,1.73
2022-07-29T03:10:36.066Z,1.88
2022-07-29T03:13:02.916Z,1.80
2022-07-29T03:15:29.517Z,2.10
2022-07-29T03:17:56.895Z,2.00
2022-07-29T03:20:23.611Z,1.92
2022-07-29T03:22:54.045Z,1.83
2022-07-29T03:25:21.468Z,1.63
2022-07-29T03:27:48.978Z,1.83
2022-07-29T03:32:58.845Z,1.92
2022-07-29T03:35:25.757Z,2.10
2022-07-29T03:37:52.409Z,1.77
2022-07-29T03:40:24.577Z,1.67
2022-07-29T03:42:52.884Z,2.38
2022-07-29T03:45:20.266Z,1.80
2022-07-29T03:47:52.892Z,2.10
2022-07-29T03:50:22.748Z,2.00
2022-07-29T03:52:49.748Z,2.05
2022-07-29T03:55:17.108Z,2.50
2022-07-29T03:57:48.315Z,2.25
2022-07-29T04:00:17.038Z,2.13
2022-07-29T04:02:49.430Z,2.13
2022-07-29T04:05:17.012Z,2.05
2022-07-29T04:07:48.022Z,2.30
2022-07-29T04:10:16.678Z,2.20
2022-07-29T04:12:43.318Z,2.10
2022-07-29T04:15:14.243Z,2.20
2022-07-29T04:17:40.756Z,2.08
2022-07-29T04:20:07.942Z,2.15
2022-07-29T04:22:35.096Z,2.25
2022-07-29T04:25:06.843Z,2.30
2022-07-29T04:27:33.414Z,2.30
2022-07-29T04:29:59.992Z,2.58
2022-07-29T04:32:27.135Z,2.30
2022-07-29T04:34:53.767Z,2.33
2022-07-29T04:37:20.423Z,2.88
2022-07-29T04:39:47.002Z,2.70
2022-07-29T04:42:13.572Z,2.55
2022-07-29T04:44:43.096Z,3.10
2022-07-29T04:47:10.060Z,2.40
2022-07-29T04:52:19.767Z,3.08
2022-07-29T04:54:51.186Z,3.03
2022-07-29T04:59:58.103Z,2.78
2022-07-29T05:02:24.876Z,2.55
2022-07-29T05:04:51.442Z,3.60
2022-07-29T05:07:18.013Z,2.50
2022-07-29T05:09:44.643Z,2.78
2022-07-29T05:12:11.928Z,2.80
2022-07-29T05:14:38.555Z,3.22
2022-07-29T05:17:08.998Z,2.72
2022-07-29T05:19:39.455Z,2.42
2022-07-29T05:22:06.545Z,3.03
2022-07-29T05:24:33.061Z,2.55
2022-07-29T05:26:59.592Z,2.95
2022-07-29T05:29:44.494Z,2.60
2022-07-29T05:32:12.842Z,2.92
2022-07-29T05:34:51.291Z,2.45
2022-07-29T05:37:20.119Z,3.03
2022-07-29T05:39:49.139Z,2.85
2022-07-29T05:42:23.143Z,2.53
2022-07-29T05:44:49.693Z,2.53
2022-07-29T05:47:16.965Z,2.83
2022-07-29T05:49:43.554Z,3.10
2022-07-29T05:52:10.070Z,2.70
2022-07-29T05:54:36.914Z,3.00
2022-07-29T05:57:04.030Z,2.45
2022-07-29T05:59:34.355Z,2.70
2022-07-29T06:02:01.081Z,2.88
2022-07-29T06:04:27.676Z,2.58
2022-07-29T06:09:36.355Z,3.08
2022-07-29T06:12:03.346Z,2.80
2022-07-29T06:14:29.845Z,3.22
2022-07-29T06:19:37.825Z,3.13
2022-07-29T06:22:04.919Z,2.60
2022-07-29T06:27:12.459Z,2.30
2022-07-29T06:29:39.367Z,2.45
2022-07-29T06:32:06.432Z,2.53
2022-07-29T06:34:33.257Z,2.75
2022-07-29T06:37:07.418Z,2.50
2022-07-29T06:39:42.008Z,2.78
2022-07-29T06:42:08.564Z,2.47
2022-07-29T06:44:42.901Z,2.20
2022-07-29T06:47:09.423Z,2.58
2022-07-29T06:52:03.149Z,2.42
2022-07-29T06:54:37.536Z,2.00
2022-07-29T06:57:04.156Z,2.40
2022-07-29T06:59:38.335Z,1.70
2022-07-29T07:04:45.680Z,2.60
2022-07-29T07:07:12.180Z,2.00
2022-07-29T07:09:40.163Z,2.13
2022-07-29T07:12:07.652Z,2.10
2022-07-29T07:14:34.218Z,2.33
2022-07-29T07:17:09.278Z,2.13
2022-07-29T07:22:02.220Z,2.30
2022-07-29T07:24:31.268Z,2.20
2022-07-29T07:26:57.996Z,2.10
2022-07-29T07:29:24.635Z,2.50
2022-07-29T07:31:51.202Z,1.75
2022-07-29T07:34:18.209Z,2.25
2022-07-29T07:39:43.461Z,2.05
2022-07-29T07:42:12.329Z,1.70
2022-07-29T07:44:57.345Z,2.03
2022-07-29T07:47:25.664Z,2.17
2022-07-29T07:49:56.625Z,1.73
2022-07-29T07:52:23.426Z,2.50
2022-07-29T07:54:50.085Z,1.95
2022-07-29T07:57:19.592Z,2.22
2022-07-29T07:59:46.161Z,2.22
2022-07-29T08:02:12.846Z,2.10
2022-07-29T08:04:41.427Z,2.13
2022-07-29T08:07:09.801Z,1.80
2022-07-29T08:09:37.120Z,2.13
2022-07-29T08:14:45.235Z,1.60
2022-07-29T08:17:11.903Z,1.95
2022-07-29T08:19:38.529Z,2.47
2022-07-29T08:22:05.417Z,1.73
2022-07-29T08:24:44.014Z,2.20
2022-07-29T08:27:40.800Z,2.00
2022-07-29T08:30:01.220Z,1.80
2022-07-29T08:32:51.243Z,2.00
2022-07-29T08:35:16.001Z,2.05
2022-07-29T08:37:42.899Z,2.30
2022-07-29T08:40:11.477Z,2.08
2022-07-29T08:42:38.411Z,2.75
2022-07-29T08:45:06.061Z,2.13
2022-07-29T08:47:33.518Z,1.95
2022-07-29T08:50:00.572Z,1.77
2022-07-29T08:52:27.385Z,1.95
2022-07-29T08:54:54.649Z,2.30
2022-07-29T08:57:39.163Z,1.90
2022-07-29T09:00:18.273Z,2.03
2022-07-29T09:02:48.417Z,2.17
2022-07-29T09:05:15.083Z,1.58
2022-07-29T09:07:44.429Z,2.00
2022-07-29T09:10:11.414Z,2.20
2022-07-29T09:12:38.415Z,1.85
2022-07-29T09:15:05.451Z,1.67
2022-07-29T09:17:50.776Z,1.60
2022-07-29T09:20:23.204Z,1.73
2022-07-29T09:22:51.788Z,1.65
2022-07-29T09:25:35.498Z,1.92
2022-07-29T09:28:08.789Z,2.08
2022-07-29T09:30:35.480Z,2.05
2022-07-29T09:33:03.789Z,2.05
2022-07-29T09:35:31.784Z,1.83
2022-07-29T09:37:58.308Z,1.60
2022-07-29T09:40:27.140Z,1.75
2022-07-29T09:42:56.496Z,1.58
2022-07-29T09:45:31.682Z,1.75
2022-07-29T09:50:43.248Z,1.83
2022-07-29T09:53:12.344Z,1.42
2022-07-29T09:55:52.997Z,1.90
2022-07-29T09:58:21.665Z,1.50
2022-07-29T10:00:49.963Z,1.90
2022-07-29T10:03:17.493Z,1.90
2022-07-29T10:05:46.586Z,1.45
2022-07-29T10:08:13.669Z,1.35
2022-07-29T10:10:43.569Z,1.70
2022-07-29T10:13:15.955Z,1.75
2022-07-29T10:15:46.039Z,1.70
2022-07-29T10:18:22.137Z,1.40
2022-07-29T10:20:49.854Z,1.90
2022-07-29T10:23:16.506Z,1.85
2022-07-29T10:25:46.170Z,1.63
2022-07-29T10:28:16.282Z,1.60
2022-07-29T10:30:45.481Z,1.73
2022-07-29T10:33:23.823Z,1.67
2022-07-29T10:36:34.690Z,1.42
2022-07-29T10:39:18.555Z,2.10
2022-07-29T10:42:16.951Z,1.90
2022-07-29T10:44:46.814Z,1.55
2022-07-29T10:47:27.887Z,1.40
2022-07-29T10:50:02.444Z,1.92
2022-07-29T10:52:57.606Z,1.27
2022-07-29T10:55:45.400Z,1.70
2022-07-29T10:58:27.307Z,2.05
2022-07-29T11:00:54.876Z,1.50
2022-07-29T11:03:48.924Z,1.42
2022-07-29T11:06:16.707Z,1.55
2022-07-29T11:08:44.669Z,1.67
2022-07-29T11:11:36.395Z,1.70
2022-07-29T11:14:03.975Z,1.80
2022-07-29T11:19:52.248Z,2.00
2022-07-29T11:25:16.900Z,1.25
2022-07-29T11:27:45.807Z,1.52
2022-07-29T11:30:13.130Z,2.42
2022-07-29T11:32:44.834Z,1.90
2022-07-29T11:35:19.491Z,1.60
2022-07-29T11:38:27.991Z,1.70
2022-07-29T11:41:24.035Z,1.83
2022-07-29T11:43:58.608Z,1.67
2022-07-29T11:46:44.756Z,1.95
2022-07-29T11:49:11.798Z,1.75
2022-07-29T11:51:48.530Z,2.10
2022-07-29T11:57:13.774Z,2.58
2022-07-29T12:00:00.382Z,1.98
2022-07-29T12:02:48.735Z,2.10
2022-07-29T12:05:22.194Z,2.13
2022-07-29T12:08:07.563Z,2.00
2022-07-29T12:10:40.138Z,1.80
2022-07-29T12:13:07.176Z,2.75
2022-07-29T12:15:46.298Z,2.05
2022-07-29T12:18:19.046Z,2.05
2022-07-29T12:20:46.813Z,1.83
2022-07-29T12:28:39.259Z,2.00
2022-07-29T12:31:06.082Z,1.50
2022-07-29T12:33:39.763Z,2.10
2022-07-29T12:36:07.301Z,1.73
2022-07-29T12:38:38.152Z,1.50
2022-07-29T12:41:05.069Z,1.80
2022-07-29T12:43:32.191Z,1.70
2022-07-29T12:45:58.856Z,1.25
2022-07-29T12:48:35.079Z,1.90
2022-07-29T12:51:03.309Z,2.00
2022-07-29T12:53:29.961Z,2.10
2022-07-29T12:56:07.972Z,2.17
2022-07-29T12:58:44.504Z,1.50
2022-07-29T13:01:17.928Z,2.00
2022-07-29T13:04:05.127Z,1.80
2022-07-29T13:06:51.842Z,1.60
2022-07-29T13:09:20.753Z,1.73
2022-07-29T13:11:50.363Z,1.67
2022-07-29T13:20:13.327Z,2.20
2022-07-29T13:25:31.252Z,1.90
2022-07-29T13:27:58.130Z,2.42
2022-07-29T13:30:25.082Z,2.35
2022-07-29T13:32:53.114Z,1.92
2022-07-29T13:35:22.675Z,1.92
2022-07-29T13:37:49.257Z,1.95
2022-07-29T13:40:18.538Z,1.55
2022-07-29T13:42:45.306Z,1.70
2022-07-29T13:45:13.704Z,1.83
2022-07-29T13:47:42.580Z,1.52
2022-07-29T13:50:12.564Z,1.45
2022-07-29T13:52:39.333Z,1.75
2022-07-29T13:55:06.549Z,1.50
2022-07-29T13:57:33.482Z,1.63
2022-07-29T14:00:00.134Z,1.80
2022-07-29T14:02:27.118Z,1.55
2022-07-29T14:04:54.984Z,2.20
2022-07-29T14:07:22.370Z,1.70
2022-07-29T14:09:48.928Z,1.48
2022-07-29T14:12:15.616Z,1.95
2022-07-29T14:14:42.547Z,2.15
2022-07-29T14:17:11.809Z,2.20
2022-07-29T14:22:28.510Z,1.60
2022-07-29T14:24:55.178Z,1.48
2022-07-29T14:27:34.878Z,1.60
2022-07-29T14:30:06.023Z,1.90
2022-07-29T14:32:32.521Z,1.65
2022-07-29T14:34:59.065Z,1.25
2022-07-29T14:37:25.613Z,1.70
2022-07-29T14:39:52.185Z,1.45
2022-07-29T14:42:18.719Z,1.23
2022-07-29T14:47:25.691Z,1.50
2022-07-29T14:49:56.104Z,1.38
2022-07-29T14:52:22.639Z,1.58
2022-07-29T14:54:49.192Z,1.88
2022-07-29T14:57:15.970Z,1.70
2022-07-29T14:59:42.545Z,1.60
2022-07-29T15:02:09.578Z,1.40
2022-07-29T15:04:36.288Z,1.30
2022-07-29T15:09:49.751Z,1.40
2022-07-29T15:12:16.641Z,0.95
2022-07-29T15:14:43.237Z,1.70
2022-07-29T15:17:09.838Z,1.40
2022-07-29T15:19:36.515Z,1.48
2022-07-29T15:22:03.667Z,1.92
2022-07-29T15:24:30.413Z,1.27
2022-07-29T15:26:57.170Z,1.50
2022-07-29T15:29:23.839Z,1.55
2022-07-29T15:31:50.947Z,1.88
2022-07-29T15:34:17.658Z,1.52
2022-07-29T15:36:53.129Z,1.83
2022-07-29T15:39:21.411Z,1.40
2022-07-29T15:41:47.944Z,1.73
2022-07-29T15:44:14.534Z,1.48
2022-07-29T15:47:00.339Z,1.45
2022-07-29T15:49:48.434Z,1.58
2022-07-29T15:52:17.950Z,1.48
2022-07-29T15:54:44.582Z,1.60
2022-07-29T15:57:11.208Z,1.95
2022-07-29T15:59:39.636Z,1.73
2022-07-29T16:02:06.410Z,1.40
2022-07-29T16:04:33.593Z,1.55
2022-07-29T16:09:41.597Z,1.83
2022-07-29T16:12:11.101Z,2.17
2022-07-29T16:14:43.240Z,2.08
2022-07-29T16:17:09.891Z,2.38
2022-07-29T16:19:41.140Z,2.05
2022-07-29T16:22:07.625Z,2.47
2022-07-29T16:24:34.155Z,1.60
2022-07-29T16:27:01.071Z,1.50
2022-07-29T16:29:27.915Z,1.73
2022-07-29T16:31:54.513Z,1.65
2022-07-29T16:34:21.105Z,1.50
2022-07-29T16:36:55.375Z,1.48
2022-07-29T16:42:05.264Z,1.98
2022-07-29T16:44:32.389Z,1.88
2022-07-29T16:46:59.693Z,1.70
2022-07-29T16:52:08.323Z,1.63
2022-07-29T16:54:34.875Z,1.90
2022-07-29T16:57:03.841Z,1.80
2022-07-29T16:59:43.316Z,1.70
2022-07-29T17:02:11.835Z,1.88
2022-07-29T17:04:38.419Z,1.48
2022-07-29T17:07:07.106Z,1.52
2022-07-29T17:09:33.797Z,2.05
2022-07-29T17:12:00.302Z,1.77
2022-07-29T17:14:29.390Z,2.13
2022-07-29T17:17:01.074Z,1.85
2022-07-29T17:19:36.735Z,3.72
2022-07-29T17:22:11.766Z,1.77
2022-07-29T17:24:42.640Z,1.63
2022-07-29T17:27:10.068Z,1.80
2022-07-29T17:32:17.285Z,2.50
2022-07-29T17:34:43.940Z,1.88
2022-07-29T17:39:52.039Z,1.70
2022-07-29T17:42:18.554Z,2.30
2022-07-29T17:47:25.958Z,2.65
2022-07-29T17:49:52.553Z,2.50
2022-07-29T17:52:19.101Z,2.40
2022-07-29T17:57:26.080Z,2.88
2022-07-29T17:59:52.640Z,2.30
2022-07-29T18:02:19.231Z,2.50
2022-07-29T18:04:45.772Z,2.15
2022-07-29T18:07:24.891Z,1.98
2022-07-29T18:09:51.385Z,2.33
2022-07-29T18:12:17.900Z,2.35
2022-07-29T18:14:44.466Z,2.63
2022-07-29T18:17:18.809Z,2.30
2022-07-29T18:19:45.383Z,2.58
2022-07-29T18:22:13.257Z,2.28
2022-07-29T18:24:39.767Z,2.90
2022-07-29T18:27:06.315Z,3.08
2022-07-29T18:29:33.056Z,2.50
2022-07-29T18:31:59.926Z,2.75
2022-07-29T18:34:26.549Z,2.72
2022-07-29T18:37:01.090Z,5.03
2022-07-29T18:39:27.915Z,2.72
2022-07-29T18:41:54.603Z,2.50
2022-07-29T18:44:22.089Z,2.33
2022-07-29T18:46:50.371Z,3.22
2022-07-29T18:49:17.011Z,3.15
2022-07-29T18:51:43.654Z,3.05
2022-07-29T18:54:14.400Z,3.35
2022-07-29T18:56:41.523Z,3.00
2022-07-29T19:01:57.853Z,3.63
2022-07-29T19:04:24.408Z,2.83
2022-07-29T19:06:50.927Z,3.03
2022-07-29T19:09:17.891Z,3.53
2022-07-29T19:11:44.589Z,3.50
2022-07-29T19:14:11.224Z,3.20
2022-07-29T19:16:37.911Z,3.20
2022-07-29T19:19:04.798Z,3.10
2022-07-29T19:21:31.392Z,3.13
2022-07-29T19:24:01.776Z,4.07
2022-07-29T19:26:36.461Z,3.05
2022-07-29T19:29:03.896Z,2.92
2022-07-29T19:31:30.675Z,2.92
2022-07-29T19:39:31.998Z,3.95
2022-07-29T19:42:03.405Z,3.22
2022-07-29T19:44:30.337Z,3.13
2022-07-29T19:49:39.305Z,3.17
2022-07-29T19:52:06.115Z,3.47
2022-07-29T19:54:32.657Z,4.38
2022-07-29T19:57:06.966Z,3.47
2022-07-29T19:59:37.501Z,3.50
2022-07-29T20:02:04.589Z,3.95
2022-07-29T20:04:31.240Z,3.75
2022-07-29T20:07:01.470Z,3.70
2022-07-29T20:09:28.850Z,3.45
2022-07-29T20:11:55.512Z,3.47
2022-07-29T20:14:22.366Z,3.78
2022-07-29T20:16:50.602Z,3.70
2022-07-29T20:19:17.666Z,3.95
2022-07-29T20:21:44.672Z,3.58
2022-07-29T20:24:11.453Z,4.75
2022-07-29T20:26:38.314Z,4.07
2022-07-29T20:29:05.446Z,3.63
2022-07-29T20:31:32.810Z,3.80
2022-07-29T20:36:41.440Z,3.80
2022-07-29T20:41:49.041Z,4.25
2022-07-29T20:44:15.593Z,4.40
2022-07-29T20:46:42.280Z,3.70
2022-07-29T20:51:49.731Z,3.83
2022-07-29T20:54:16.235Z,4.47
2022-07-29T21:02:04.730Z,4.10
2022-07-29T21:04:32.678Z,4.30
2022-07-29T21:06:59.517Z,4.85
2022-07-29T21:09:26.201Z,4.07
2022-07-29T21:11:52.704Z,4.47
2022-07-29T21:14:37.318Z,4.82
2022-07-29T21:17:07.683Z,4.33
2022-07-29T21:19:35.040Z,4.47
2022-07-29T21:22:01.710Z,4.10
2022-07-29T21:24:28.235Z,5.20
2022-07-29T21:27:20.695Z,4.65
2022-07-29T21:29:50.192Z,43.90
2022-07-29T21:32:29.690Z,28.40
2022-07-29T21:34:57.317Z,12.43
2022-07-29T21:40:06.430Z,4.78
2022-07-29T21:42:33.787Z,4.40
2022-07-29T21:45:00.463Z,4.57
2022-07-29T21:47:26.984Z,5.13
2022-07-29T21:55:18.622Z,5.20
2022-07-29T21:57:53.816Z,5.57
2022-07-29T22:00:21.185Z,5.35
2022-07-29T22:02:48.541Z,4.82
2022-07-29T22:05:15.134Z,4.20
2022-07-29T22:07:55.818Z,4.70
2022-07-29T22:13:05.609Z,4.30
2022-07-29T22:15:32.293Z,4.78
2022-07-29T22:17:59.141Z,5.32
2022-07-29T22:20:25.777Z,5.13
2022-07-29T22:22:52.995Z,5.57
2022-07-29T22:28:03.095Z,6.05
2022-07-29T22:30:29.912Z,6.55
2022-07-29T22:32:56.644Z,5.28
2022-07-29T22:35:23.175Z,5.18
2022-07-29T22:38:01.089Z,5.40
2022-07-29T22:43:07.620Z,4.78
2022-07-29T22:45:35.997Z,5.35
2022-07-29T22:48:03.041Z,5.13
2022-07-29T22:50:29.911Z,5.72
2022-07-29T22:52:56.720Z,5.70
2022-07-29T22:55:23.262Z,5.53
2022-07-29T22:57:49.881Z,5.43
2022-07-29T23:00:16.561Z,4.88
2022-07-29T23:02:43.096Z,4.75
2022-07-29T23:05:10.438Z,4.43
2022-07-29T23:07:37.099Z,4.00
2022-07-29T23:10:04.317Z,4.38
2022-07-29T23:12:30.921Z,3.88
2022-07-29T23:14:57.503Z,4.70
2022-07-29T23:17:24.291Z,4.10
2022-07-29T23:19:50.931Z,4.40
2022-07-29T23:22:18.494Z,4.65
2022-07-29T23:24:45.421Z,4.40
2022-07-29T23:27:12.020Z,4.43
2022-07-29T23:29:38.592Z,4.45
2022-07-29T23:32:05.553Z,5.40
2022-07-29T23:34:32.071Z,4.70
2022-07-29T23:39:39.391Z,4.90
2022-07-29T23:42:05.979Z,4.65
2022-07-29T23:44:32.505Z,4.40
2022-07-29T23:46:59.294Z,5.18
2022-07-29T23:49:33.518Z,5.43
2022-07-29T23:52:00.048Z,5.07
2022-07-29T23:54:26.584Z,5.80
2022-07-29T23:57:02.718Z,5.60
2022-07-29T23:59:37.184Z,5.63
